Time;durP1;ratioP1;P1;durP2;ratioP2;P2;SDS_P1;SDS_P2;PMS_P1;PMS_P2;Temp;Humidity;BMP_temperature;BMP_pressure;BME280_temperature;BME280_humidity;BME280_pressure;Samples;Min_cycle;Max_cycle;Signal;HPM_P1;HPM_P2
2023/06/19 00:01:26;;;;;;;10.25;8.32;;;;;;;;;;4961631;28;20045;-73
2023/06/19 00:03:51;;;;;;;11.75;8.57;;;;;;;;;;4943903;28;20041;-71
2023/06/19 00:06:17;;;;;;;12.52;8.32;;;;;;;;;;4950088;28;20536;-73
2023/06/19 00:08:42;;;;;;;10.45;8.65;;;;;;;;;;4961156;28;20220;-72
2023/06/19 00:11:07;;;;;;;9.82;8.60;;;;;;;;;;4949389;28;20102;-71
2023/06/19 00:13:33;;;;;;;10.60;8.35;;;;;;;;;;4962473;28;20038;-72
2023/06/19 00:16:00;;;;;;;9.23;8.02;;;;;;;;;;4961547;28;20096;-73
2023/06/19 00:18:25;;;;;;;9.10;7.65;;;;;;;;;;4962423;28;20081;-72
2023/06/19 00:20:52;;;;;;;10.52;8.57;;;;;;;;;;4949142;28;20441;-72
2023/06/19 00:23:18;;;;;;;10.93;8.30;;;;;;;;;;4961854;28;20538;-71
2023/06/19 00:25:44;;;;;;;11.15;8.00;;;;;;;;;;4952026;28;20061;-71
2023/06/19 00:28:11;;;;;;;10.43;8.02;;;;;;;;;;4962687;28;20126;-72
2023/06/19 00:30:37;;;;;;;12.02;8.45;;;;;;;;;;4962184;28;20084;-71
2023/06/19 00:33:02;;;;;;;12.15;8.77;;;;;;;;;;4921242;28;20042;-72
2023/06/19 00:35:27;;;;;;;9.85;8.00;;;;;;;;;;4962520;28;20034;-74
2023/06/19 00:37:53;;;;;;;13.60;8.40;;;;;;;;;;4948184;28;20391;-72
2023/06/19 00:40:24;;;;;;;12.68;8.57;;;;;;;;;;4944607;28;20049;-71
2023/06/19 00:42:49;;;;;;;16.20;8.30;;;;;;;;;;4954158;28;20597;-74
2023/06/19 00:45:14;;;;;;;10.90;8.35;;;;;;;;;;4963859;28;20062;-72
2023/06/19 00:47:40;;;;;;;15.43;7.40;;;;;;;;;;4963180;28;20069;-75
2023/06/19 00:50:06;;;;;;;14.15;7.88;;;;;;;;;;4969486;28;20030;-74
2023/06/19 00:52:31;;;;;;;17.38;9.18;;;;;;;;;;4972520;28;20132;-75
2023/06/19 00:54:56;;;;;;;14.80;8.88;;;;;;;;;;4956280;28;20033;-74
2023/06/19 00:57:21;;;;;;;11.68;8.95;;;;;;;;;;4953713;28;20757;-74
2023/06/19 00:59:47;;;;;;;11.35;8.15;;;;;;;;;;4958350;28;20754;-73
2023/06/19 01:02:14;;;;;;;15.32;7.80;;;;;;;;;;4955965;28;20041;-74
2023/06/19 01:04:41;;;;;;;12.43;8.25;;;;;;;;;;4972360;28;20177;-75
2023/06/19 01:07:09;;;;;;;13.82;8.02;;;;;;;;;;4970529;28;20039;-74
2023/06/19 01:09:40;;;;;;;9.98;6.03;;;;;;;;;;4971936;28;20050;-73
2023/06/19 01:12:25;;;;;;;7.80;4.80;;;;;;;;;;4974710;28;20140;-74
2023/06/19 01:14:58;;;;;;;5.50;4.53;;;;;;;;;;4974647;28;20293;-74
2023/06/19 01:17:25;;;;;;;6.75;3.58;;;;;;;;;;4980583;28;20187;-76
2023/06/19 01:19:50;;;;;;;7.93;3.15;;;;;;;;;;4976812;28;20133;-74
2023/06/19 01:22:30;;;;;;;7.85;3.20;;;;;;;;;;4973202;28;20034;-74
2023/06/19 01:24:58;;;;;;;14.40;3.58;;;;;;;;;;4966914;28;20538;-75
2023/06/19 01:27:25;;;;;;;8.68;3.65;;;;;;;;;;4965949;28;20041;-74
2023/06/19 01:29:51;;;;;;;34.60;5.78;;;;;;;;;;4975699;28;20127;-72
2023/06/19 01:32:29;;;;;;;12.75;5.13;;;;;;;;;;4963441;28;20035;-74
2023/06/19 01:34:58;;;;;;;11.65;5.47;;;;;;;;;;4954847;28;20042;-76
2023/06/19 01:37:27;;;;;;;12.85;5.90;;;;;;;;;;4987830;28;20139;-74
2023/06/19 01:39:55;;;;;;;8.85;6.07;;;;;;;;;;4985562;28;20485;-73
2023/06/19 01:42:21;;;;;;;7.25;5.75;;;;;;;;;;4977069;28;20058;-66
2023/06/19 01:44:46;;;;;;;9.95;5.75;;;;;;;;;;4964368;28;20524;-67
2023/06/19 01:47:12;;;;;;;9.38;6.32;;;;;;;;;;4965117;28;20375;-68
2023/06/19 01:49:38;;;;;;;10.10;7.10;;;;;;;;;;4964726;28;20065;-68
2023/06/19 01:52:06;;;;;;;8.48;6.97;;;;;;;;;;4964595;28;20679;-68
2023/06/19 01:54:31;;;;;;;8.68;5.50;;;;;;;;;;4952529;28;20320;-69
2023/06/19 01:56:57;;;;;;;7.25;5.35;;;;;;;;;;4947600;28;20138;-68
2023/06/19 01:59:22;;;;;;;8.10;5.80;;;;;;;;;;4955035;28;20077;-67
2023/06/19 02:01:48;;;;;;;7.07;5.10;;;;;;;;;;4947878;28;20458;-69
2023/06/19 02:04:13;;;;;;;7.38;5.60;;;;;;;;;;4936417;28;20486;-67
2023/06/19 02:06:38;;;;;;;10.80;7.07;;;;;;;;;;4951422;28;20364;-68
2023/06/19 02:09:03;;;;;;;9.57;6.10;;;;;;;;;;4963629;28;20046;-68
2023/06/19 02:11:29;;;;;;;10.70;5.78;;;;;;;;;;4964066;28;20287;-67
2023/06/19 02:13:54;;;;;;;11.65;7.45;;;;;;;;;;4955164;28;20042;-68
2023/06/19 02:16:21;;;;;;;10.88;7.45;;;;;;;;;;4963298;28;20470;-68
2023/06/19 02:18:47;;;;;;;14.38;7.82;;;;;;;;;;4947306;28;20098;-67
2023/06/19 02:21:12;;;;;;;9.38;6.85;;;;;;;;;;4965066;28;20041;-66
2023/06/19 02:23:37;;;;;;;18.42;9.52;;;;;;;;;;4962768;28;20038;-67
2023/06/19 02:26:03;;;;;;;16.40;9.32;;;;;;;;;;4963032;28;20062;-66
2023/06/19 02:28:28;;;;;;;15.02;9.07;;;;;;;;;;4963618;28;20203;-69
2023/06/19 02:30:56;;;;;;;14.13;10.98;;;;;;;;;;4963670;28;20034;-67
2023/06/19 02:33:21;;;;;;;15.85;10.80;;;;;;;;;;4963623;28;20049;-67
2023/06/19 02:35:46;;;;;;;15.20;10.77;;;;;;;;;;4962817;28;20038;-67
2023/06/19 02:38:12;;;;;;;17.33;14.40;;;;;;;;;;4948735;28;20042;-69
2023/06/19 02:40:38;;;;;;;21.50;14.77;;;;;;;;;;4951053;28;20100;-66
2023/06/19 02:43:03;;;;;;;18.58;16.13;;;;;;;;;;4946470;28;20039;-69
2023/06/19 02:45:28;;;;;;;25.27;17.42;;;;;;;;;;4948421;28;20038;-68
2023/06/19 02:47:53;;;;;;;26.83;19.48;;;;;;;;;;4955236;28;21939;-68
2023/06/19 02:50:19;;;;;;;21.27;18.67;;;;;;;;;;4962840;28;20039;-67
2023/06/19 02:52:44;;;;;;;22.88;18.90;;;;;;;;;;4963474;28;20125;-70
2023/06/19 02:55:09;;;;;;;22.23;18.92;;;;;;;;;;4962569;28;20069;-66
2023/06/19 02:57:35;;;;;;;21.38;18.45;;;;;;;;;;4963132;28;20776;-68
2023/06/19 03:00:03;;;;;;;24.52;19.48;;;;;;;;;;4949179;28;20778;-69
2023/06/19 03:02:31;;;;;;;26.77;20.08;;;;;;;;;;4965605;28;20038;-69
2023/06/19 03:04:56;;;;;;;23.20;20.80;;;;;;;;;;4963408;28;20580;-66
2023/06/19 03:07:28;;;;;;;26.58;22.05;;;;;;;;;;4964022;28;20535;-69
2023/06/19 03:09:53;;;;;;;25.45;20.58;;;;;;;;;;4949692;28;20623;-68
2023/06/19 03:12:18;;;;;;;31.67;25.00;;;;;;;;;;4953903;28;20054;-68
2023/06/19 03:14:44;;;;;;;27.77;23.25;;;;;;;;;;4950651;28;20430;-67
2023/06/19 03:17:09;;;;;;;23.80;21.15;;;;;;;;;;4963440;28;20607;-68
2023/06/19 03:19:37;;;;;;;26.67;23.88;;;;;;;;;;4962770;28;20079;-67
2023/06/19 03:22:04;;;;;;;50.00;36.88;;;;;;;;;;4962905;28;20069;-66
2023/06/19 03:24:29;;;;;;;57.03;41.13;;;;;;;;;;4962041;28;20038;-66
2023/06/19 03:26:55;;;;;;;54.45;39.30;;;;;;;;;;4962453;28;20122;-67
2023/06/19 03:29:20;;;;;;;55.78;40.38;;;;;;;;;;4953968;28;20042;-68
2023/06/19 03:31:45;;;;;;;55.03;38.47;;;;;;;;;;4963269;28;20108;-68
2023/06/19 03:34:10;;;;;;;55.10;36.90;;;;;;;;;;4961747;28;20148;-67
2023/06/19 03:36:36;;;;;;;54.47;35.63;;;;;;;;;;4949700;28;20041;-67
2023/06/19 03:39:01;;;;;;;53.03;34.10;;;;;;;;;;4950167;28;20053;-67
2023/06/19 03:41:26;;;;;;;49.95;32.55;;;;;;;;;;4950287;28;20038;-69
2023/06/19 03:43:52;;;;;;;44.78;29.85;;;;;;;;;;4961990;28;20066;-70
2023/06/19 03:46:17;;;;;;;49.90;28.42;;;;;;;;;;4964189;28;20038;-69
2023/06/19 03:48:42;;;;;;;43.80;26.35;;;;;;;;;;4963489;28;20065;-68
2023/06/19 03:51:07;;;;;;;44.13;24.85;;;;;;;;;;4949839;28;20050;-69
2023/06/19 03:53:33;;;;;;;33.92;24.60;;;;;;;;;;4953702;28;20030;-67
2023/06/19 03:55:58;;;;;;;36.95;25.60;;;;;;;;;;4950270;28;22418;-67
2023/06/19 03:58:23;;;;;;;48.22;28.80;;;;;;;;;;4962805;28;20042;-71
2023/06/19 04:00:49;;;;;;;50.42;31.67;;;;;;;;;;4961417;28;20070;-71
2023/06/19 04:03:14;;;;;;;50.45;33.90;;;;;;;;;;4962115;28;20042;-72
2023/06/19 04:05:41;;;;;;;49.33;35.85;;;;;;;;;;4961765;28;20091;-70
2023/06/19 04:08:07;;;;;;;60.45;42.80;;;;;;;;;;4960014;28;20562;-70
2023/06/19 04:10:32;;;;;;;88.15;50.33;;;;;;;;;;4946837;28;20042;-68
2023/06/19 04:12:58;;;;;;;98.13;51.30;;;;;;;;;;4962125;28;21183;-66
2023/06/19 04:15:23;;;;;;;93.90;50.25;;;;;;;;;;4961499;28;20045;-68
2023/06/19 04:17:48;;;;;;;107.65;47.35;;;;;;;;;;4961624;28;20840;-70
2023/06/19 04:20:14;;;;;;;105.85;48.83;;;;;;;;;;4960864;28;20608;-69
2023/06/19 04:22:42;;;;;;;96.82;47.58;;;;;;;;;;4961758;28;20034;-70
2023/06/19 04:25:11;;;;;;;103.47;45.08;;;;;;;;;;4964080;28;20507;-70
2023/06/19 04:27:36;;;;;;;97.47;45.13;;;;;;;;;;4954279;28;20566;-70
2023/06/19 04:30:02;;;;;;;109.18;49.28;;;;;;;;;;4953498;28;20034;-71
2023/06/19 04:32:28;;;;;;;118.65;49.15;;;;;;;;;;4966443;28;20092;-73
2023/06/19 04:34:53;;;;;;;121.07;50.63;;;;;;;;;;4966078;28;20491;-72
2023/06/19 04:37:19;;;;;;;128.18;50.45;;;;;;;;;;4965582;28;20541;-69
2023/06/19 04:39:47;;;;;;;133.32;51.63;;;;;;;;;;4964816;28;20115;-72
2023/06/19 04:42:19;;;;;;;127.38;51.08;;;;;;;;;;4963695;28;20034;-71
2023/06/19 04:44:50;;;;;;;128.68;51.53;;;;;;;;;;4962199;28;20036;-70
2023/06/19 04:47:16;;;;;;;107.25;44.15;;;;;;;;;;4965332;28;20030;-69
2023/06/19 04:49:42;;;;;;;99.43;41.60;;;;;;;;;;4951999;28;20400;-73
2023/06/19 04:52:07;;;;;;;94.10;39.65;;;;;;;;;;4949661;28;20393;-70
2023/06/19 04:54:35;;;;;;;83.35;38.20;;;;;;;;;;4952350;28;20391;-71
2023/06/19 04:57:02;;;;;;;85.50;39.40;;;;;;;;;;4965513;28;20061;-71
2023/06/19 04:59:28;;;;;;;78.57;38.35;;;;;;;;;;4965980;28;20168;-72
2023/06/19 05:01:54;;;;;;;63.88;34.47;;;;;;;;;;4969560;28;20087;-78
2023/06/19 05:04:22;;;;;;;60.03;33.13;;;;;;;;;;4967689;28;20395;-76
2023/06/19 05:06:48;;;;;;;54.35;30.73;;;;;;;;;;4968051;28;20038;-77
2023/06/19 05:09:13;;;;;;;57.05;28.23;;;;;;;;;;4971746;28;20097;-79
2023/06/19 05:11:39;;;;;;;44.15;27.02;;;;;;;;;;4957641;28;20596;-79
2023/06/19 05:14:07;;;;;;;38.50;24.60;;;;;;;;;;4926268;28;20054;-76
2023/06/19 05:16:38;;;;;;;42.03;23.15;;;;;;;;;;4965436;28;20164;-77
2023/06/19 05:19:08;;;;;;;34.53;20.58;;;;;;;;;;4969009;28;20091;-77
2023/06/19 05:21:34;;;;;;;44.17;20.48;;;;;;;;;;4956529;28;20042;-77
2023/06/19 05:24:01;;;;;;;38.20;18.08;;;;;;;;;;4968888;28;20042;-77
2023/06/19 05:26:26;;;;;;;27.05;15.60;;;;;;;;;;4964088;28;20042;-77
2023/06/19 05:28:52;;;;;;;27.52;14.45;;;;;;;;;;4962254;28;20050;-75
2023/06/19 05:31:19;;;;;;;30.85;14.30;;;;;;;;;;4975654;28;20667;-79
2023/06/19 05:33:45;;;;;;;31.02;15.18;;;;;;;;;;4948354;28;20137;-76
2023/06/19 05:36:10;;;;;;;33.30;14.05;;;;;;;;;;4976278;28;20209;-76
2023/06/19 05:38:36;;;;;;;28.02;13.95;;;;;;;;;;4956997;28;20031;-80
2023/06/19 05:41:02;;;;;;;28.70;13.82;;;;;;;;;;4972694;28;20125;-79
2023/06/19 05:43:27;;;;;;;30.52;14.18;;;;;;;;;;4973775;28;20443;-84
2023/06/19 05:45:53;;;;;;;32.00;13.57;;;;;;;;;;4974171;28;20125;-77
2023/06/19 05:48:18;;;;;;;28.77;14.13;;;;;;;;;;4975665;28;20566;-76
2023/06/19 05:50:48;;;;;;;29.67;14.32;;;;;;;;;;4967395;28;21263;-77
2023/06/19 05:53:13;;;;;;;27.75;15.27;;;;;;;;;;4974419;28;20890;-75
2023/06/19 05:55:42;;;;;;;30.60;15.45;;;;;;;;;;4975778;28;20034;-74
2023/06/19 05:58:07;;;;;;;30.38;15.50;;;;;;;;;;4968522;28;20109;-80
2023/06/19 06:00:32;;;;;;;28.33;15.43;;;;;;;;;;4978549;28;20064;-82
2023/06/19 06:03:00;;;;;;;29.08;16.05;;;;;;;;;;4974615;28;20157;-81
2023/06/19 06:05:26;;;;;;;26.52;16.85;;;;;;;;;;4971174;28;20049;-81
2023/06/19 06:07:52;;;;;;;31.52;17.92;;;;;;;;;;4960551;28;20101;-78
2023/06/19 06:10:21;;;;;;;39.55;18.55;;;;;;;;;;4950465;28;20491;-80
2023/06/19 06:12:47;;;;;;;34.90;17.70;;;;;;;;;;4966468;28;20768;-77
2023/06/19 06:15:13;;;;;;;35.42;18.02;;;;;;;;;;4967309;28;20599;-78
2023/06/19 06:17:38;;;;;;;40.70;17.80;;;;;;;;;;4968639;28;20082;-81
2023/06/19 06:20:11;;;;;;;33.10;18.70;;;;;;;;;;4954357;28;20034;-77
2023/06/19 06:22:40;;;;;;;33.13;19.38;;;;;;;;;;4968009;28;20076;-77
2023/06/19 06:25:06;;;;;;;36.67;19.55;;;;;;;;;;4964481;28;20490;-70
2023/06/19 06:27:31;;;;;;;39.67;20.63;;;;;;;;;;4964568;28;20041;-69
2023/06/19 06:29:57;;;;;;;34.88;20.73;;;;;;;;;;4920135;28;20039;-72
2023/06/19 06:32:22;;;;;;;40.40;21.45;;;;;;;;;;4948756;28;20460;-71
2023/06/19 06:34:48;;;;;;;42.65;21.23;;;;;;;;;;4953715;28;20050;-70
2023/06/19 06:37:16;;;;;;;33.38;20.73;;;;;;;;;;4965028;28;20042;-68
2023/06/19 06:39:41;;;;;;;32.25;20.33;;;;;;;;;;4946447;28;20379;-70
2023/06/19 06:42:07;;;;;;;39.40;20.23;;;;;;;;;;4963693;28;20034;-72
2023/06/19 06:44:32;;;;;;;33.00;19.67;;;;;;;;;;4964578;28;20036;-71
2023/06/19 06:46:57;;;;;;;33.90;19.50;;;;;;;;;;4951629;28;20042;-69
2023/06/19 06:49:23;;;;;;;32.40;19.73;;;;;;;;;;4963058;28;20046;-71
2023/06/19 06:51:48;;;;;;;33.95;19.23;;;;;;;;;;4953897;28;20663;-71
2023/06/19 06:54:14;;;;;;;36.53;19.35;;;;;;;;;;4946660;28;20046;-72
2023/06/19 06:56:39;;;;;;;33.72;18.88;;;;;;;;;;4963556;28;22098;-70
2023/06/19 06:59:04;;;;;;;27.73;18.67;;;;;;;;;;4943878;28;20386;-70
2023/06/19 07:01:30;;;;;;;34.38;18.50;;;;;;;;;;4963379;28;20062;-71
2023/06/19 07:03:55;;;;;;;40.70;19.48;;;;;;;;;;4964549;28;20034;-70
2023/06/19 07:06:20;;;;;;;30.15;18.55;;;;;;;;;;4944613;28;20054;-71
2023/06/19 07:08:47;;;;;;;34.97;19.60;;;;;;;;;;4956774;28;20309;-70
2023/06/19 07:11:12;;;;;;;45.40;20.73;;;;;;;;;;4934858;28;20687;-71
2023/06/19 07:13:38;;;;;;;43.90;22.45;;;;;;;;;;4963765;28;20094;-70
2023/06/19 07:16:04;;;;;;;39.65;23.10;;;;;;;;;;4964142;28;20038;-68
2023/06/19 07:18:30;;;;;;;36.80;22.48;;;;;;;;;;4946332;28;20033;-69
2023/06/19 07:20:55;;;;;;;41.30;23.73;;;;;;;;;;4942913;28;20054;-69
2023/06/19 07:23:20;;;;;;;39.65;22.92;;;;;;;;;;4964152;28;20049;-71
2023/06/19 07:25:49;;;;;;;44.47;24.38;;;;;;;;;;4963492;28;20077;-75
2023/06/19 07:28:15;;;;;;;46.50;25.70;;;;;;;;;;4972438;28;20049;-73
2023/06/19 07:30:43;;;;;;;44.80;25.67;;;;;;;;;;4977469;28;20034;-81
2023/06/19 07:33:08;;;;;;;42.22;26.17;;;;;;;;;;4984098;28;20128;-77
2023/06/19 07:35:34;;;;;;;45.00;25.52;;;;;;;;;;4975075;28;20037;-80
2023/06/19 07:38:01;;;;;;;40.55;24.95;;;;;;;;;;4981472;28;20038;-83
2023/06/19 07:40:26;;;;;;;45.42;25.02;;;;;;;;;;4992323;28;20041;-78
2023/06/19 07:42:52;;;;;;;48.45;25.98;;;;;;;;;;4964589;28;20054;-77
2023/06/19 07:45:17;;;;;;;41.08;25.50;;;;;;;;;;4963799;28;20523;-79
2023/06/19 07:47:42;;;;;;;41.80;23.83;;;;;;;;;;4981197;28;20034;-80
2023/06/19 07:50:08;;;;;;;41.28;24.30;;;;;;;;;;4957011;28;20579;-79
2023/06/19 07:52:33;;;;;;;36.30;23.00;;;;;;;;;;4983311;28;20423;-78
2023/06/19 07:54:59;;;;;;;33.88;21.88;;;;;;;;;;4968861;28;20113;-76
2023/06/19 07:57:25;;;;;;;36.75;22.45;;;;;;;;;;4966693;28;20419;-76
2023/06/19 07:59:53;;;;;;;30.88;20.88;;;;;;;;;;4997528;28;20057;-78
2023/06/19 08:02:18;;;;;;;36.95;20.75;;;;;;;;;;4975904;28;20165;-78
2023/06/19 08:04:45;;;;;;;33.75;19.88;;;;;;;;;;4986060;28;20496;-78
2023/06/19 08:07:12;;;;;;;33.60;20.20;;;;;;;;;;4984704;28;20564;-77
2023/06/19 08:09:39;;;;;;;32.97;20.95;;;;;;;;;;4987958;28;20145;-75
2023/06/19 08:12:06;;;;;;;31.45;20.02;;;;;;;;;;4988081;28;20453;-78
2023/06/19 08:14:31;;;;;;;32.10;19.65;;;;;;;;;;4988751;28;20042;-73
2023/06/19 08:16:56;;;;;;;31.65;19.52;;;;;;;;;;4951300;28;20400;-71
2023/06/19 08:19:24;;;;;;;33.65;18.83;;;;;;;;;;4929291;28;20086;-71
2023/06/19 08:21:54;;;;;;;31.45;19.55;;;;;;;;;;4947798;28;20964;-74
2023/06/19 08:24:19;;;;;;;33.25;19.48;;;;;;;;;;4961428;28;20126;-75
2023/06/19 08:26:45;;;;;;;31.88;19.80;;;;;;;;;;4959841;28;20066;-76
2023/06/19 08:29:12;;;;;;;32.08;19.30;;;;;;;;;;4961674;28;20046;-73
2023/06/19 08:31:40;;;;;;;31.30;19.67;;;;;;;;;;4962434;28;20034;-75
2023/06/19 08:34:09;;;;;;;29.77;18.30;;;;;;;;;;4958405;28;20041;-75
2023/06/19 08:36:34;;;;;;;25.90;16.90;;;;;;;;;;5400526;22;20061;-71
2023/06/19 08:39:00;;;;;;;25.83;17.35;;;;;;;;;;4988149;28;20045;-73
2023/06/19 08:41:25;;;;;;;27.38;17.08;;;;;;;;;;5006480;28;20032;-72
2023/06/19 08:43:50;;;;;;;31.38;16.52;;;;;;;;;;5013204;28;20091;-71
2023/06/19 08:46:20;;;;;;;30.08;17.42;;;;;;;;;;5012617;28;20067;-72
2023/06/19 08:48:46;;;;;;;26.17;16.05;;;;;;;;;;5008377;28;20432;-71
2023/06/19 08:51:13;;;;;;;26.95;16.67;;;;;;;;;;5004318;28;20034;-71
2023/06/19 08:53:47;;;;;;;26.73;15.77;;;;;;;;;;5007395;28;20057;-70
2023/06/19 08:56:13;;;;;;;27.88;15.77;;;;;;;;;;4999879;28;20144;-69
2023/06/19 08:58:38;;;;;;;27.65;15.73;;;;;;;;;;5001292;28;20026;-72
2023/06/19 09:01:04;;;;;;;24.52;14.88;;;;;;;;;;5018413;28;20068;-69
2023/06/19 09:03:29;;;;;;;28.83;15.88;;;;;;;;;;5013880;28;20037;-71
2023/06/19 09:05:54;;;;;;;24.58;14.88;;;;;;;;;;5002497;28;20037;-72
2023/06/19 09:08:20;;;;;;;25.25;15.02;;;;;;;;;;5009838;28;20051;-72
2023/06/19 09:11:01;;;;;;;24.73;14.90;;;;;;;;;;5020422;28;20034;-72
2023/06/19 09:13:30;;;;;;;20.50;13.85;;;;;;;;;;5015865;28;20054;-72
2023/06/19 09:16:00;;;;;;;24.98;14.45;;;;;;;;;;5026468;28;20033;-72
2023/06/19 09:18:25;;;;;;;22.63;14.32;;;;;;;;;;5022878;28;20034;-69
2023/06/19 09:20:55;;;;;;;28.20;14.98;;;;;;;;;;5018836;28;20052;-71
2023/06/19 09:23:20;;;;;;;21.10;14.25;;;;;;;;;;5017124;28;20068;-72
2023/06/19 09:25:52;;;;;;;22.63;13.77;;;;;;;;;;5025681;28;20480;-73
2023/06/19 09:28:21;;;;;;;21.80;12.95;;;;;;;;;;5007971;28;20099;-70
2023/06/19 09:31:12;;;;;;;22.10;12.90;;;;;;;;;;5008383;28;20064;-68
2023/06/19 09:33:39;;;;;;;23.02;13.15;;;;;;;;;;5003673;28;20132;-71
2023/06/19 09:36:05;;;;;;;21.00;11.73;;;;;;;;;;5017951;28;20118;-70
2023/06/19 09:38:34;;;;;;;20.00;12.18;;;;;;;;;;5018716;28;20041;-72
2023/06/19 09:41:01;;;;;;;27.13;12.32;;;;;;;;;;5035682;28;20033;-70
2023/06/19 09:43:37;;;;;;;21.20;11.95;;;;;;;;;;5022092;28;20044;-71
2023/06/19 09:46:06;;;;;;;23.33;12.25;;;;;;;;;;5017351;28;20580;-71
2023/06/19 09:48:34;;;;;;;23.27;11.93;;;;;;;;;;5024962;28;20046;-70
2023/06/19 09:51:02;;;;;;;19.80;11.13;;;;;;;;;;5012562;28;20215;-70
2023/06/19 09:53:27;;;;;;;20.45;12.48;;;;;;;;;;5021908;28;20095;-74
2023/06/19 09:55:52;;;;;;;24.33;12.65;;;;;;;;;;5016945;28;20037;-71
2023/06/19 09:58:22;;;;;;;23.35;10.98;;;;;;;;;;5016142;28;20632;-72
2023/06/19 10:00:50;;;;;;;21.90;11.50;;;;;;;;;;5008740;28;20038;-70
2023/06/19 10:03:16;;;;;;;21.08;11.30;;;;;;;;;;5005153;28;20033;-69
2023/06/19 10:05:41;;;;;;;22.42;12.15;;;;;;;;;;4999125;28;20038;-67
2023/06/19 10:08:08;;;;;;;20.70;11.65;;;;;;;;;;5010818;28;20374;-71
2023/06/19 10:10:36;;;;;;;24.75;12.43;;;;;;;;;;5010354;28;20081;-73
2023/06/19 10:13:14;;;;;;;20.20;11.70;;;;;;;;;;5019164;28;20108;-70
2023/06/19 10:15:42;;;;;;;19.30;11.57;;;;;;;;;;5027864;28;20033;-72
2023/06/19 10:18:07;;;;;;;22.95;11.00;;;;;;;;;;5018042;28;20033;-74
2023/06/19 10:20:40;;;;;;;18.23;10.85;;;;;;;;;;5016696;28;20024;-73
2023/06/19 10:23:07;;;;;;;19.45;11.45;;;;;;;;;;5017114;28;20030;-71
2023/06/19 10:25:36;;;;;;;19.25;12.05;;;;;;;;;;5009392;28;20034;-70
2023/06/19 10:28:05;;;;;;;19.83;12.43;;;;;;;;;;5013400;28;20036;-72
2023/06/19 10:30:34;;;;;;;20.92;12.20;;;;;;;;;;5011269;28;20053;-71
2023/06/19 10:33:02;;;;;;;18.67;11.68;;;;;;;;;;5018625;28;20088;-71
2023/06/19 10:35:28;;;;;;;21.42;11.63;;;;;;;;;;5031918;28;20029;-69
2023/06/19 10:37:54;;;;;;;20.98;11.18;;;;;;;;;;5011795;28;20597;-71
2023/06/19 10:40:19;;;;;;;23.20;12.00;;;;;;;;;;5015114;28;20068;-72
2023/06/19 10:42:45;;;;;;;18.33;10.32;;;;;;;;;;5010400;28;20350;-74
2023/06/19 10:45:12;;;;;;;17.40;9.77;;;;;;;;;;5015473;28;20052;-73
2023/06/19 10:47:38;;;;;;;18.15;10.45;;;;;;;;;;5016073;28;20033;-72
2023/06/19 10:50:04;;;;;;;16.90;9.82;;;;;;;;;;5021429;28;20072;-71
2023/06/19 10:52:29;;;;;;;20.33;10.45;;;;;;;;;;5018595;28;20434;-72
2023/06/19 10:54:55;;;;;;;16.77;10.10;;;;;;;;;;5008139;28;20037;-70
2023/06/19 10:57:27;;;;;;;17.50;9.93;;;;;;;;;;5005615;28;20037;-72
2023/06/19 10:59:53;;;;;;;21.05;10.20;;;;;;;;;;5016749;28;20087;-72
2023/06/19 11:02:18;;;;;;;19.20;9.20;;;;;;;;;;5014932;28;20033;-71
2023/06/19 11:04:46;;;;;;;19.52;9.07;;;;;;;;;;5015208;28;20086;-71
2023/06/19 11:07:12;;;;;;;18.40;8.93;;;;;;;;;;5012680;28;20381;-73
2023/06/19 11:09:37;;;;;;;17.25;8.60;;;;;;;;;;5029332;28;20064;-69
2023/06/19 11:12:02;;;;;;;28.08;9.63;;;;;;;;;;5024398;28;20056;-70
2023/06/19 11:14:29;;;;;;;17.27;8.30;;;;;;;;;;5015851;28;20104;-70
2023/06/19 11:16:54;;;;;;;18.05;8.70;;;;;;;;;;5016472;28;20256;-72
2023/06/19 11:19:21;;;;;;;17.45;8.38;;;;;;;;;;5019266;28;20029;-71
2023/06/19 11:21:48;;;;;;;16.90;8.50;;;;;;;;;;5013234;28;20033;-73
2023/06/19 11:24:14;;;;;;;21.85;8.43;;;;;;;;;;5019003;28;20034;-73
2023/06/19 11:26:49;;;;;;;16.27;8.65;;;;;;;;;;5007738;28;20100;-70
2023/06/19 11:29:21;;;;;;;16.45;8.65;;;;;;;;;;5007280;28;20037;-71
2023/06/19 11:31:47;;;;;;;15.05;8.45;;;;;;;;;;5003004;28;21261;-72
2023/06/19 11:34:13;;;;;;;29.17;8.27;;;;;;;;;;5033118;28;20030;-71
2023/06/19 11:36:38;;;;;;;16.92;7.95;;;;;;;;;;5020437;28;20134;-72
2023/06/19 11:39:05;;;;;;;17.25;8.10;;;;;;;;;;5019540;28;20117;-70
2023/06/19 11:41:34;;;;;;;16.90;8.13;;;;;;;;;;5010366;28;20034;-70
2023/06/19 11:44:00;;;;;;;17.38;8.98;;;;;;;;;;5006039;28;20034;-70
2023/06/19 11:46:29;;;;;;;15.90;8.35;;;;;;;;;;5003302;28;20500;-71
2023/06/19 11:48:55;;;;;;;20.90;8.05;;;;;;;;;;5003389;28;20038;-70
2023/06/19 11:51:23;;;;;;;16.30;7.43;;;;;;;;;;5008358;28;20730;-69
2023/06/19 11:53:49;;;;;;;14.00;6.78;;;;;;;;;;5010166;28;20136;-71
2023/06/19 11:56:14;;;;;;;20.67;7.18;;;;;;;;;;5005183;28;20107;-71
2023/06/19 11:58:39;;;;;;;14.82;7.15;;;;;;;;;;5005662;28;20076;-70
2023/06/19 12:01:05;;;;;;;19.20;6.75;;;;;;;;;;5014749;28;20092;-73
2023/06/19 12:03:30;;;;;;;13.52;6.45;;;;;;;;;;5015405;28;20030;-71
2023/06/19 12:05:56;;;;;;;17.17;7.45;;;;;;;;;;5005630;28;20041;-70
2023/06/19 12:08:21;;;;;;;17.02;6.63;;;;;;;;;;4999985;28;20056;-69
2023/06/19 12:10:46;;;;;;;16.88;6.82;;;;;;;;;;5011397;28;20406;-70
2023/06/19 12:13:14;;;;;;;17.40;7.47;;;;;;;;;;5002730;28;21868;-67
2023/06/19 12:15:39;;;;;;;14.73;7.25;;;;;;;;;;5003461;28;20450;-66
2023/06/19 12:18:06;;;;;;;12.80;6.65;;;;;;;;;;5000200;28;20030;-69
2023/06/19 12:20:32;;;;;;;13.90;7.40;;;;;;;;;;4999511;28;20033;-68
2023/06/19 12:22:59;;;;;;;16.55;6.90;;;;;;;;;;4996948;28;20238;-68
2023/06/19 12:25:25;;;;;;;14.25;7.32;;;;;;;;;;5003902;28;20045;-67
2023/06/19 12:27:51;;;;;;;19.80;8.30;;;;;;;;;;4997861;28;20037;-68
2023/06/19 12:30:16;;;;;;;17.92;7.53;;;;;;;;;;4998787;28;20045;-68
2023/06/19 12:32:41;;;;;;;13.27;7.05;;;;;;;;;;4995562;28;20124;-70
2023/06/19 12:35:07;;;;;;;11.98;7.15;;;;;;;;;;5000514;28;20704;-71
2023/06/19 12:37:32;;;;;;;16.55;7.68;;;;;;;;;;4987182;28;20263;-69
2023/06/19 12:39:58;;;;;;;16.15;7.90;;;;;;;;;;4997048;28;20913;-68
2023/06/19 12:42:23;;;;;;;16.27;8.38;;;;;;;;;;4995835;28;20040;-69
2023/06/19 12:44:48;;;;;;;16.70;8.75;;;;;;;;;;5013075;28;20499;-67
2023/06/19 12:47:15;;;;;;;16.00;7.57;;;;;;;;;;5013341;28;20042;-68
2023/06/19 12:49:40;;;;;;;14.93;8.38;;;;;;;;;;5001329;28;20289;-69
2023/06/19 12:52:05;;;;;;;20.65;7.65;;;;;;;;;;5000614;28;20041;-69
2023/06/19 12:54:31;;;;;;;14.95;8.23;;;;;;;;;;5003642;28;20584;-69
2023/06/19 12:56:56;;;;;;;13.05;7.63;;;;;;;;;;4999424;28;20033;-70
2023/06/19 12:59:22;;;;;;;13.40;8.13;;;;;;;;;;4997870;28;20037;-73
2023/06/19 13:01:47;;;;;;;15.00;7.05;;;;;;;;;;5000384;28;20057;-70
2023/06/19 13:04:13;;;;;;;14.43;7.63;;;;;;;;;;5002326;28;20066;-67
2023/06/19 13:06:38;;;;;;;11.65;7.15;;;;;;;;;;5002407;28;20038;-67
2023/06/19 13:09:04;;;;;;;11.15;7.30;;;;;;;;;;5000146;28;20198;-68
2023/06/19 13:11:30;;;;;;;12.55;7.03;;;;;;;;;;5009158;28;20375;-69
2023/06/19 13:13:57;;;;;;;15.43;7.28;;;;;;;;;;5001445;28;20037;-69
2023/06/19 13:16:25;;;;;;;16.50;7.45;;;;;;;;;;4999156;28;20535;-69
2023/06/19 13:18:53;;;;;;;16.02;7.47;;;;;;;;;;5000393;28;20072;-67
2023/06/19 13:21:19;;;;;;;12.88;7.07;;;;;;;;;;4997377;28;20156;-68
2023/06/19 13:23:44;;;;;;;18.88;7.10;;;;;;;;;;5014248;28;20037;-69
2023/06/19 13:26:09;;;;;;;11.32;6.90;;;;;;;;;;4998260;28;20116;-69
2023/06/19 13:28:35;;;;;;;14.55;6.90;;;;;;;;;;4996933;28;20299;-69
2023/06/19 13:31:00;;;;;;;13.95;6.93;;;;;;;;;;4998890;28;20165;-65
2023/06/19 13:33:28;;;;;;;12.82;6.68;;;;;;;;;;4979815;28;20040;-70
2023/06/19 13:35:53;;;;;;;12.18;7.10;;;;;;;;;;4999082;28;20037;-69
2023/06/19 13:38:18;;;;;;;10.98;6.63;;;;;;;;;;4997539;28;20088;-68
2023/06/19 13:40:44;;;;;;;14.07;6.32;;;;;;;;;;5009208;28;20033;-68
2023/06/19 13:43:09;;;;;;;14.93;6.32;;;;;;;;;;4997623;28;20034;-69
2023/06/19 13:45:35;;;;;;;14.30;6.72;;;;;;;;;;4997851;28;20037;-68
2023/06/19 13:48:02;;;;;;;12.00;6.18;;;;;;;;;;5000117;28;20042;-68
2023/06/19 13:50:30;;;;;;;13.48;6.95;;;;;;;;;;4998114;28;20626;-68
2023/06/19 13:52:55;;;;;;;10.52;6.72;;;;;;;;;;5001711;28;20082;-68
2023/06/19 13:55:22;;;;;;;13.32;6.72;;;;;;;;;;5002748;28;22648;-70
2023/06/19 13:57:50;;;;;;;10.23;6.43;;;;;;;;;;5001077;28;20040;-68
2023/06/19 14:00:18;;;;;;;11.13;6.32;;;;;;;;;;4998841;28;20045;-69
2023/06/19 14:02:43;;;;;;;15.25;6.80;;;;;;;;;;4998330;28;20025;-68
2023/06/19 14:05:11;;;;;;;12.35;6.72;;;;;;;;;;4997890;28;20032;-69
2023/06/19 14:07:36;;;;;;;10.90;6.70;;;;;;;;;;4997265;28;20022;-66
2023/06/19 14:10:02;;;;;;;14.00;6.95;;;;;;;;;;4997435;28;20122;-70
2023/06/19 14:12:28;;;;;;;12.25;6.88;;;;;;;;;;4995705;28;20148;-69
2023/06/19 14:14:56;;;;;;;9.30;6.50;;;;;;;;;;4997286;28;20122;-68
2023/06/19 14:17:21;;;;;;;12.70;6.60;;;;;;;;;;4995983;28;20045;-68
2023/06/19 14:19:47;;;;;;;12.02;6.95;;;;;;;;;;4997872;28;20255;-68